SWA128 KSAN-PHOG
Flight info
| Callsign | SWA128 |
|---|---|
| Flight time | N/A |
| Altitude | 34000 |
| Route | PADRZ2 MALIT C1177 FICKY R578 FOOTS ETECO DIALO R576 DENNS LNDHY1 |
| Aircraft | B738/M-SDE2E3FGHIRWXY/LB1 |
Departure
| Time | N/A |
|---|---|
| Airport | San Diego International Airport (KSAN) |
Arrival
| Time | 2026-04-21 19:46 |
|---|---|
| Airport | Kahului International Airport (PHOG) |
| Time | Latitude | Longitude | Altitude | Speed | Heading |
|---|---|---|---|---|---|
| 2026-04-21 18:50 | 23.76364 | -151.06776 | 34074 ft | 453 kts | 245° |
| 2026-04-21 18:50 | 23.73420 | -151.12878 | 34081 ft | 456 kts | 245° |
| 2026-04-21 18:51 | 23.70457 | -151.19011 | 34077 ft | 458 kts | 245° |
| 2026-04-21 18:51 | 23.67480 | -151.25165 | 34072 ft | 459 kts | 245° |
| 2026-04-21 18:52 | 23.64495 | -151.31325 | 34074 ft | 459 kts | 245° |
| 2026-04-21 18:52 | 23.61510 | -151.37480 | 34072 ft | 459 kts | 245° |
| 2026-04-21 18:53 | 23.58527 | -151.43622 | 34073 ft | 458 kts | 245° |
| 2026-04-21 18:53 | 23.55546 | -151.49751 | 34073 ft | 457 kts | 245° |
| 2026-04-21 18:54 | 23.52570 | -151.55864 | 34074 ft | 456 kts | 245° |
| 2026-04-21 18:54 | 23.49595 | -151.61967 | 34075 ft | 455 kts | 245° |
| 2026-04-21 18:55 | 23.47128 | -151.67024 | 34075 ft | 455 kts | 245° |
| 2026-04-21 18:55 | 23.43656 | -151.74131 | 34071 ft | 454 kts | 245° |
| 2026-04-21 18:56 | 23.40684 | -151.80205 | 34071 ft | 454 kts | 245° |
| 2026-04-21 18:56 | 23.37710 | -151.86274 | 34072 ft | 455 kts | 245° |
| 2026-04-21 18:57 | 23.34732 | -151.92346 | 34074 ft | 455 kts | 245° |
| 2026-04-21 18:57 | 23.31744 | -151.98431 | 34075 ft | 455 kts | 245° |
| 2026-04-21 18:58 | 23.28776 | -152.04468 | 34072 ft | 456 kts | 246° |
| 2026-04-21 18:58 | 23.25781 | -152.10552 | 34073 ft | 457 kts | 246° |
| 2026-04-21 18:59 | 23.22774 | -152.16654 | 34081 ft | 458 kts | 246° |
| 2026-04-21 18:59 | 23.19757 | -152.22767 | 34075 ft | 460 kts | 246° |
| 2026-04-21 19:00 | 23.16728 | -152.28898 | 34074 ft | 461 kts | 246° |
| 2026-04-21 19:00 | 23.13691 | -152.35037 | 34073 ft | 462 kts | 246° |
| 2026-04-21 19:01 | 23.10651 | -152.41175 | 34075 ft | 462 kts | 246° |
| 2026-04-21 19:01 | 23.07607 | -152.47311 | 34074 ft | 461 kts | 246° |
| 2026-04-21 19:02 | 23.04567 | -152.53436 | 34071 ft | 461 kts | 246° |
| 2026-04-21 19:02 | 23.01522 | -152.59556 | 34074 ft | 460 kts | 246° |
| 2026-04-21 19:03 | 22.98467 | -152.65649 | 34072 ft | 460 kts | 246° |
| 2026-04-21 19:03 | 22.95405 | -152.71743 | 34073 ft | 459 kts | 246° |
| 2026-04-21 19:04 | 22.92367 | -152.77783 | 34072 ft | 459 kts | 246° |
| 2026-04-21 19:04 | 22.89290 | -152.83898 | 34071 ft | 458 kts | 246° |
| 2026-04-21 19:05 | 22.86234 | -152.89964 | 34074 ft | 458 kts | 246° |
| 2026-04-21 19:05 | 22.83176 | -152.96027 | 34075 ft | 458 kts | 246° |
| 2026-04-21 19:06 | 22.80137 | -153.02047 | 34076 ft | 459 kts | 246° |
| 2026-04-21 19:06 | 22.77071 | -153.08114 | 34076 ft | 459 kts | 246° |
| 2026-04-21 19:07 | 22.73998 | -153.14186 | 34080 ft | 460 kts | 247° |
| 2026-04-21 19:07 | 22.70919 | -153.20262 | 34085 ft | 461 kts | 247° |
| 2026-04-21 19:08 | 22.67831 | -153.26350 | 34084 ft | 462 kts | 247° |
| 2026-04-21 19:08 | 22.64736 | -153.32443 | 34087 ft | 463 kts | 247° |
| 2026-04-21 19:09 | 22.61630 | -153.38551 | 34083 ft | 464 kts | 247° |
| 2026-04-21 19:09 | 22.58516 | -153.44667 | 34085 ft | 464 kts | 247° |
| 2026-04-21 19:10 | 22.55395 | -153.50789 | 34090 ft | 465 kts | 247° |
| 2026-04-21 19:10 | 22.52268 | -153.56916 | 34093 ft | 466 kts | 247° |
| 2026-04-21 19:11 | 22.49134 | -153.63051 | 34090 ft | 466 kts | 247° |
| 2026-04-21 19:11 | 22.45993 | -153.69193 | 34072 ft | 467 kts | 248° |
| 2026-04-21 19:11 | 22.44417 | -153.72272 | 33797 ft | 468 kts | 248° |
| 2026-04-21 19:12 | 22.43376 | -153.74302 | 33636 ft | 466 kts | 248° |
| 2026-04-21 19:12 | 22.41279 | -153.78391 | 33305 ft | 464 kts | 248° |
| 2026-04-21 19:12 | 22.39716 | -153.81443 | 33063 ft | 465 kts | 248° |
| 2026-04-21 19:12 | 22.38150 | -153.84495 | 32818 ft | 465 kts | 248° |
| 2026-04-21 19:13 | 22.36583 | -153.87547 | 32572 ft | 465 kts | 248° |
| 2026-04-21 19:13 | 22.34980 | -153.90581 | 32324 ft | 466 kts | 246° |
| 2026-04-21 19:13 | 22.33292 | -153.93579 | 32078 ft | 467 kts | 245° |
| 2026-04-21 19:13 | 22.31568 | -153.96555 | 31829 ft | 467 kts | 245° |
| 2026-04-21 19:14 | 22.29839 | -153.99520 | 31583 ft | 467 kts | 245° |
| 2026-04-21 19:14 | 22.28114 | -154.02488 | 31335 ft | 466 kts | 245° |
| 2026-04-21 19:14 | 22.26404 | -154.05449 | 31093 ft | 464 kts | 245° |
| 2026-04-21 19:14 | 22.24710 | -154.08397 | 30837 ft | 462 kts | 245° |
| 2026-04-21 19:15 | 22.23022 | -154.11340 | 30585 ft | 459 kts | 246° |
| 2026-04-21 19:15 | 22.21351 | -154.14260 | 30333 ft | 456 kts | 246° |
| 2026-04-21 19:15 | 22.19692 | -154.17158 | 30080 ft | 452 kts | 246° |
| 2026-04-21 19:15 | 22.18045 | -154.20036 | 29829 ft | 449 kts | 246° |
| 2026-04-21 19:16 | 22.16411 | -154.22888 | 29568 ft | 446 kts | 246° |
| 2026-04-21 19:16 | 22.14784 | -154.25726 | 29337 ft | 443 kts | 246° |
| 2026-04-21 19:16 | 22.13172 | -154.28537 | 29079 ft | 440 kts | 246° |
| 2026-04-21 19:16 | 22.11568 | -154.31335 | 28827 ft | 437 kts | 246° |
| 2026-04-21 19:17 | 22.08383 | -154.36884 | 28329 ft | 433 kts | 245° |
| 2026-04-21 19:17 | 22.06823 | -154.39598 | 28083 ft | 431 kts | 245° |
| 2026-04-21 19:17 | 22.05249 | -154.42335 | 27832 ft | 428 kts | 245° |
| 2026-04-21 19:18 | 22.03684 | -154.45057 | 27587 ft | 427 kts | 245° |
| 2026-04-21 19:18 | 22.02122 | -154.47771 | 27336 ft | 425 kts | 245° |
| 2026-04-21 19:18 | 22.00566 | -154.50474 | 27086 ft | 423 kts | 245° |
| 2026-04-21 19:18 | 21.99019 | -154.53160 | 26838 ft | 421 kts | 245° |
| 2026-04-21 19:19 | 21.97476 | -154.55837 | 26587 ft | 419 kts | 244° |
| 2026-04-21 19:19 | 21.95938 | -154.58502 | 26341 ft | 417 kts | 244° |
| 2026-04-21 19:19 | 21.94444 | -154.61169 | 26089 ft | 414 kts | 246° |
| 2026-04-21 19:19 | 21.93048 | -154.63862 | 25838 ft | 410 kts | 248° |
| 2026-04-21 19:20 | 21.91703 | -154.66555 | 25589 ft | 407 kts | 248° |
| 2026-04-21 19:20 | 21.90376 | -154.69241 | 25335 ft | 405 kts | 248° |
| 2026-04-21 19:20 | 21.89058 | -154.71907 | 25086 ft | 403 kts | 248° |
| 2026-04-21 19:20 | 21.87739 | -154.74559 | 24835 ft | 401 kts | 247° |
| 2026-04-21 19:21 | 21.86421 | -154.77198 | 24580 ft | 399 kts | 247° |
| 2026-04-21 19:21 | 21.85106 | -154.79818 | 24337 ft | 397 kts | 247° |
| 2026-04-21 19:21 | 21.83794 | -154.82425 | 24087 ft | 395 kts | 246° |
| 2026-04-21 19:21 | 21.82487 | -154.85018 | 23838 ft | 393 kts | 246° |
| 2026-04-21 19:22 | 21.81185 | -154.87597 | 23588 ft | 392 kts | 246° |
| 2026-04-21 19:22 | 21.79888 | -154.90165 | 23340 ft | 390 kts | 246° |
| 2026-04-21 19:22 | 21.78594 | -154.92724 | 23088 ft | 388 kts | 246° |
| 2026-04-21 19:22 | 21.77307 | -154.95269 | 22839 ft | 387 kts | 246° |
| 2026-04-21 19:23 | 21.76025 | -154.97804 | 22589 ft | 385 kts | 246° |
| 2026-04-21 19:23 | 21.74746 | -155.00330 | 22341 ft | 384 kts | 246° |
| 2026-04-21 19:23 | 21.73470 | -155.02848 | 22090 ft | 382 kts | 246° |
| 2026-04-21 19:23 | 21.72199 | -155.05357 | 21835 ft | 381 kts | 246° |
| 2026-04-21 19:24 | 21.70933 | -155.07855 | 21590 ft | 380 kts | 246° |
| 2026-04-21 19:24 | 21.69670 | -155.10345 | 21346 ft | 378 kts | 246° |
| 2026-04-21 19:24 | 21.68412 | -155.12825 | 21093 ft | 377 kts | 246° |
| 2026-04-21 19:24 | 21.67160 | -155.15292 | 20841 ft | 376 kts | 246° |
| 2026-04-21 19:25 | 21.65911 | -155.17750 | 20591 ft | 374 kts | 246° |
| 2026-04-21 19:25 | 21.64667 | -155.20200 | 20341 ft | 372 kts | 246° |
| 2026-04-21 19:25 | 21.63428 | -155.22635 | 20090 ft | 371 kts | 246° |
| 2026-04-21 19:25 | 21.62196 | -155.25059 | 19842 ft | 369 kts | 246° |
| 2026-04-21 19:26 | 21.61381 | -155.26660 | 19675 ft | 368 kts | 246° |
| 2026-04-21 19:26 | 21.59759 | -155.29848 | 19343 ft | 366 kts | 246° |
| 2026-04-21 19:26 | 21.58541 | -155.32239 | 19094 ft | 364 kts | 246° |
| 2026-04-21 19:26 | 21.57328 | -155.34621 | 18844 ft | 362 kts | 246° |
| 2026-04-21 19:27 | 21.56122 | -155.36988 | 18594 ft | 361 kts | 246° |
| 2026-04-21 19:27 | 21.54918 | -155.39348 | 18338 ft | 360 kts | 246° |
| 2026-04-21 19:27 | 21.53718 | -155.41700 | 18095 ft | 358 kts | 246° |
| 2026-04-21 19:27 | 21.52524 | -155.44041 | 17845 ft | 357 kts | 246° |
| 2026-04-21 19:28 | 21.51720 | -155.45615 | 17676 ft | 356 kts | 246° |
| 2026-04-21 19:28 | 21.50533 | -155.47941 | 17428 ft | 354 kts | 246° |
| 2026-04-21 19:28 | 21.49350 | -155.50256 | 17178 ft | 353 kts | 246° |
| 2026-04-21 19:28 | 21.48170 | -155.52565 | 16925 ft | 352 kts | 245° |
| 2026-04-21 19:29 | 21.47010 | -155.54833 | 16679 ft | 350 kts | 245° |
| 2026-04-21 19:29 | 21.45840 | -155.57120 | 16429 ft | 349 kts | 245° |
| 2026-04-21 19:29 | 21.44672 | -155.59401 | 16168 ft | 348 kts | 245° |
| 2026-04-21 19:29 | 21.43510 | -155.61672 | 15929 ft | 347 kts | 245° |
| 2026-04-21 19:30 | 21.42350 | -155.63936 | 15683 ft | 345 kts | 245° |
| 2026-04-21 19:30 | 21.41197 | -155.66187 | 15438 ft | 344 kts | 245° |
| 2026-04-21 19:30 | 21.40044 | -155.68434 | 15178 ft | 343 kts | 245° |
| 2026-04-21 19:30 | 21.38896 | -155.70673 | 14930 ft | 342 kts | 245° |
| 2026-04-21 19:31 | 21.37752 | -155.72905 | 14684 ft | 341 kts | 244° |
| 2026-04-21 19:31 | 21.36611 | -155.75127 | 14439 ft | 340 kts | 244° |
| 2026-04-21 19:31 | 21.35474 | -155.77341 | 14179 ft | 339 kts | 244° |
| 2026-04-21 19:31 | 21.34338 | -155.79553 | 13931 ft | 338 kts | 244° |
| 2026-04-21 19:32 | 21.33206 | -155.81755 | 13683 ft | 336 kts | 244° |
| 2026-04-21 19:32 | 21.32080 | -155.83945 | 13432 ft | 335 kts | 244° |
| 2026-04-21 19:32 | 21.30959 | -155.86123 | 13112 ft | 332 kts | 244° |
| 2026-04-21 19:32 | 21.29850 | -155.88278 | 12733 ft | 329 kts | 244° |
| 2026-04-21 19:33 | 21.28749 | -155.90417 | 12348 ft | 326 kts | 243° |
| 2026-04-21 19:33 | 21.27659 | -155.92533 | 11959 ft | 323 kts | 243° |
| 2026-04-21 19:33 | 21.26574 | -155.94640 | 11560 ft | 322 kts | 243° |
| 2026-04-21 19:33 | 21.25496 | -155.96733 | 11171 ft | 320 kts | 243° |
| 2026-04-21 19:34 | 21.24424 | -155.98813 | 10787 ft | 318 kts | 242° |
| 2026-04-21 19:34 | 21.23364 | -156.00869 | 10582 ft | 310 kts | 242° |
| 2026-04-21 19:34 | 21.22335 | -156.02864 | 10430 ft | 302 kts | 242° |
| 2026-04-21 19:34 | 21.21333 | -156.04804 | 10298 ft | 293 kts | 242° |
| 2026-04-21 19:35 | 21.20362 | -156.06687 | 10173 ft | 284 kts | 242° |
| 2026-04-21 19:35 | 21.18498 | -156.10295 | 9842 ft | 272 kts | 242° |
| 2026-04-21 19:35 | 21.17568 | -156.12047 | 9590 ft | 270 kts | 236° |
| 2026-04-21 19:36 | 21.16232 | -156.13439 | 9304 ft | 269 kts | 217° |
| 2026-04-21 19:36 | 21.14705 | -156.14625 | 8948 ft | 271 kts | 216° |
| 2026-04-21 19:36 | 21.13187 | -156.15775 | 8661 ft | 271 kts | 215° |
| 2026-04-21 19:36 | 21.11647 | -156.16937 | 8373 ft | 270 kts | 215° |
| 2026-04-21 19:37 | 21.10116 | -156.18095 | 8096 ft | 269 kts | 215° |
| 2026-04-21 19:37 | 21.08596 | -156.19248 | 7816 ft | 267 kts | 215° |
| 2026-04-21 19:37 | 21.07084 | -156.20396 | 7532 ft | 266 kts | 215° |
| 2026-04-21 19:37 | 21.05577 | -156.21543 | 7263 ft | 265 kts | 215° |
| 2026-04-21 19:38 | 21.04081 | -156.22682 | 6991 ft | 263 kts | 215° |
| 2026-04-21 19:38 | 21.02593 | -156.23815 | 6719 ft | 262 kts | 215° |
| 2026-04-21 19:38 | 21.01108 | -156.24945 | 6452 ft | 261 kts | 215° |
| 2026-04-21 19:38 | 20.99633 | -156.26067 | 6184 ft | 260 kts | 215° |
| 2026-04-21 19:39 | 20.98165 | -156.27185 | 5918 ft | 257 kts | 215° |
| 2026-04-21 19:39 | 20.96729 | -156.28278 | 5645 ft | 249 kts | 215° |
| 2026-04-21 19:39 | 20.95354 | -156.29326 | 5520 ft | 236 kts | 215° |
| 2026-04-21 19:39 | 20.94034 | -156.30331 | 5404 ft | 231 kts | 215° |
| 2026-04-21 19:40 | 20.92724 | -156.31327 | 5346 ft | 232 kts | 215° |
| 2026-04-21 19:40 | 20.91398 | -156.32334 | 5257 ft | 235 kts | 215° |
| 2026-04-21 19:40 | 20.90061 | -156.33352 | 5146 ft | 236 kts | 215° |
| 2026-04-21 19:40 | 20.88732 | -156.34364 | 5036 ft | 232 kts | 215° |
| 2026-04-21 19:41 | 20.87431 | -156.35359 | 5014 ft | 228 kts | 215° |
| 2026-04-21 19:41 | 20.86147 | -156.36340 | 5009 ft | 226 kts | 215° |
| 2026-04-21 19:41 | 20.84864 | -156.37307 | 5008 ft | 226 kts | 214° |
| 2026-04-21 19:41 | 20.83563 | -156.38266 | 4993 ft | 227 kts | 214° |
| 2026-04-21 19:42 | 20.82264 | -156.39221 | 4870 ft | 226 kts | 214° |
| 2026-04-21 19:42 | 20.80974 | -156.40171 | 4651 ft | 224 kts | 216° |
| 2026-04-21 19:42 | 20.79866 | -156.41289 | 4404 ft | 216 kts | 234° |
| 2026-04-21 19:42 | 20.79277 | -156.42715 | 4138 ft | 207 kts | 258° |
| 2026-04-21 19:43 | 20.79225 | -156.44207 | 3895 ft | 197 kts | 276° |
| 2026-04-21 19:43 | 20.79581 | -156.45588 | 3628 ft | 191 kts | 295° |
| 2026-04-21 19:43 | 20.80287 | -156.46728 | 3389 ft | 185 kts | 313° |
| 2026-04-21 19:43 | 20.81358 | -156.47563 | 2665 ft | 198 kts | 341° |
| 2026-04-21 19:44 | 20.82736 | -156.47653 | 1934 ft | 202 kts | 8° |
| 2026-04-21 19:44 | 20.84090 | -156.47271 | 1287 ft | 201 kts | 33° |
| 2026-04-21 19:44 | 20.85123 | -156.46389 | 1019 ft | 182 kts | 32° |
| 2026-04-21 19:44 | 20.86147 | -156.45726 | 831 ft | 162 kts | 33° |
| 2026-04-21 19:45 | 20.87010 | -156.45054 | 612 ft | 146 kts | 36° |
| 2026-04-21 19:45 | 20.87809 | -156.44452 | 374 ft | 135 kts | 32° |
| 2026-04-21 19:45 | 20.88531 | -156.43918 | 186 ft | 121 kts | 34° |
| 2026-04-21 19:45 | 20.89215 | -156.43411 | 46 ft | 113 kts | 34° |
| 2026-04-21 19:46 | 20.89767 | -156.43002 | 42 ft | 72 kts | 35° |
| 2026-04-21 19:46 | 20.90050 | -156.42788 | 43 ft | 29 kts | 35° |
| 2026-04-21 19:46 | 20.90193 | -156.42679 | 43 ft | 17 kts | 35° |
| 2026-04-21 19:46 | 20.90252 | -156.42697 | 43 ft | 11 kts | 252° |
| 2026-04-21 19:47 | 20.90199 | -156.42809 | 42 ft | 19 kts | 240° |
| 2026-04-21 19:47 | 20.90106 | -156.42904 | 43 ft | 18 kts | 216° |
| 2026-04-21 19:47 | 20.90004 | -156.42982 | 44 ft | 18 kts | 216° |
| 2026-04-21 19:47 | 20.89905 | -156.43055 | 43 ft | 17 kts | 214° |
| 2026-04-21 19:48 | 20.89808 | -156.43126 | 42 ft | 16 kts | 214° |
| 2026-04-21 19:48 | 20.89716 | -156.43194 | 43 ft | 16 kts | 214° |
| 2026-04-21 19:48 | 20.89628 | -156.43261 | 44 ft | 15 kts | 216° |
| 2026-04-21 19:48 | 20.89544 | -156.43326 | 44 ft | 15 kts | 216° |
| 2026-04-21 19:49 | 20.89475 | -156.43401 | 44 ft | 14 kts | 234° |
| 2026-04-21 19:49 | 20.89406 | -156.43470 | 44 ft | 13 kts | 216° |
| 2026-04-21 19:49 | 20.89372 | -156.43498 | 44 ft | 0 kts | 217° |
| 2026-04-21 19:50 | 20.89340 | -156.43523 | 44 ft | 13 kts | 217° |
| 2026-04-21 19:50 | 20.89298 | -156.43596 | 41 ft | 7 kts | 306° |
| 2026-04-21 19:50 | 20.89326 | -156.43637 | 42 ft | 7 kts | 306° |
| 2026-04-21 19:50 | 20.89331 | -156.43644 | 44 ft | 0 kts | 305° |